createdAt,value
2022-11-29T00:00:53.562Z,4.00
2022-11-29T00:03:42.300Z,3.60
2022-11-29T00:06:32.539Z,3.47
2022-11-29T00:09:21.405Z,3.05
2022-11-29T00:12:13.872Z,3.00
2022-11-29T00:15:03.878Z,3.13
2022-11-29T00:17:52.482Z,4.43
2022-11-29T00:20:41.540Z,2.85
2022-11-29T00:23:30.163Z,2.92
2022-11-29T00:26:19.044Z,3.05
2022-11-29T00:29:07.687Z,3.03
2022-11-29T00:31:57.720Z,3.42
2022-11-29T00:34:46.484Z,3.22
2022-11-29T00:37:35.201Z,3.10
2022-11-29T00:40:23.879Z,3.00
2022-11-29T00:43:12.518Z,2.22
2022-11-29T00:46:01.254Z,3.00
2022-11-29T00:48:51.239Z,2.75
2022-11-29T00:51:39.931Z,2.63
2022-11-29T00:54:28.576Z,2.45
2022-11-29T00:57:17.193Z,2.50
2022-11-29T01:00:07.067Z,2.30
2022-11-29T01:02:55.689Z,2.28
2022-11-29T01:05:45.870Z,2.55
2022-11-29T01:08:34.618Z,2.75
2022-11-29T01:11:25.392Z,1.90
2022-11-29T01:14:14.426Z,2.35
2022-11-29T01:17:03.151Z,2.20
2022-11-29T01:19:51.751Z,2.22
2022-11-29T01:22:41.828Z,2.63
2022-11-29T01:25:32.038Z,2.20
2022-11-29T01:28:20.792Z,2.33
2022-11-29T01:31:10.167Z,1.83
2022-11-29T01:34:00.537Z,2.53
2022-11-29T01:36:49.215Z,1.75
2022-11-29T01:39:39.493Z,2.35
2022-11-29T01:42:28.259Z,1.95
2022-11-29T01:45:23.572Z,1.70
2022-11-29T01:48:12.754Z,1.92
2022-11-29T01:51:02.499Z,1.73
2022-11-29T01:53:51.248Z,1.80
2022-11-29T01:56:41.746Z,2.20
2022-11-29T01:59:31.343Z,1.80
2022-11-29T02:02:26.348Z,1.77
2022-11-29T02:05:16.641Z,2.00
2022-11-29T02:08:05.812Z,1.67
2022-11-29T02:11:13.465Z,1.52
2022-11-29T02:14:13.892Z,1.60
2022-11-29T02:17:08.533Z,1.63
2022-11-29T02:20:37.137Z,1.65
2022-11-29T02:23:42.544Z,1.67
2022-11-29T02:26:59.407Z,1.70
2022-11-29T02:30:16.508Z,1.70
2022-11-29T02:33:22.522Z,1.70
2022-11-29T02:36:32.796Z,1.60
2022-11-29T02:39:54.040Z,1.65
2022-11-29T02:43:08.558Z,1.42
2022-11-29T02:46:14.294Z,1.48
2022-11-29T02:49:09.807Z,1.65
2022-11-29T02:52:01.244Z,1.65
2022-11-29T02:54:52.696Z,1.15
2022-11-29T02:57:45.151Z,1.40
2022-11-29T03:00:35.063Z,1.35
2022-11-29T03:03:26.979Z,1.00
2022-11-29T03:06:23.994Z,1.27
2022-11-29T03:09:19.968Z,1.42
2022-11-29T03:12:18.187Z,0.93
2022-11-29T03:15:15.507Z,1.15
2022-11-29T03:18:15.494Z,1.33
2022-11-29T03:21:12.067Z,1.40
2022-11-29T03:24:06.633Z,1.45
2022-11-29T03:27:01.464Z,1.23
2022-11-29T03:29:52.873Z,1.17
2022-11-29T03:32:49.319Z,0.90
2022-11-29T03:35:41.356Z,1.13
2022-11-29T03:38:32.451Z,1.15
2022-11-29T03:41:27.460Z,1.55
2022-11-29T03:44:19.697Z,1.10
2022-11-29T03:47:11.111Z,1.10
2022-11-29T03:50:03.297Z,1.33
2022-11-29T03:52:55.485Z,0.95
2022-11-29T03:55:53.029Z,1.23
2022-11-29T03:58:50.733Z,0.70
2022-11-29T04:02:04.977Z,1.10
2022-11-29T04:05:37.352Z,1.20
2022-11-29T04:08:59.343Z,1.10
2022-11-29T04:12:19.881Z,1.35
2022-11-29T04:15:38.777Z,0.90
2022-11-29T04:19:00.885Z,1.33
2022-11-29T04:22:07.382Z,0.68
2022-11-29T04:25:32.079Z,0.93
2022-11-29T04:29:04.505Z,0.90
2022-11-29T04:32:09.768Z,1.27
2022-11-29T04:35:10.694Z,0.80
2022-11-29T04:38:27.010Z,0.85
2022-11-29T04:41:27.011Z,0.98
2022-11-29T04:44:30.831Z,0.77
2022-11-29T04:47:43.028Z,0.70
2022-11-29T04:50:43.758Z,0.80
2022-11-29T04:53:41.134Z,0.80
2022-11-29T04:56:36.290Z,0.68
2022-11-29T04:59:28.371Z,0.68
2022-11-29T05:02:35.076Z,0.90
2022-11-29T05:05:31.534Z,0.90
2022-11-29T05:08:29.375Z,0.65
2022-11-29T05:11:26.716Z,0.63
2022-11-29T05:14:21.935Z,0.52
2022-11-29T05:17:27.064Z,0.82
2022-11-29T05:20:24.822Z,0.80
2022-11-29T05:23:24.056Z,0.50
2022-11-29T05:26:17.621Z,0.55
2022-11-29T05:29:10.495Z,0.80
2022-11-29T05:32:15.728Z,0.40
2022-11-29T05:35:34.298Z,0.88
2022-11-29T05:38:35.608Z,0.57
2022-11-29T05:41:43.153Z,0.80
2022-11-29T05:44:34.027Z,0.50
2022-11-29T05:47:31.205Z,0.55
2022-11-29T05:50:25.083Z,0.77
2022-11-29T05:53:20.820Z,0.65
2022-11-29T05:56:16.848Z,0.75
2022-11-29T05:59:10.314Z,0.60
2022-11-29T06:02:06.298Z,1.13
2022-11-29T06:05:06.628Z,0.40
2022-11-29T06:07:58.200Z,0.98
2022-11-29T06:10:59.160Z,0.60
2022-11-29T06:13:55.708Z,1.05
2022-11-29T06:16:57.948Z,0.95
2022-11-29T06:20:00.932Z,1.02
2022-11-29T06:23:04.008Z,0.95
2022-11-29T06:26:04.553Z,0.90
2022-11-29T06:29:02.577Z,0.70
2022-11-29T06:31:55.049Z,0.93
2022-11-29T06:34:48.334Z,0.75
2022-11-29T06:37:40.635Z,1.00
2022-11-29T06:40:29.645Z,0.85
2022-11-29T06:43:20.393Z,0.70
2022-11-29T06:46:14.659Z,0.98
2022-11-29T06:49:09.203Z,0.90
2022-11-29T06:52:06.853Z,1.40
2022-11-29T06:55:03.430Z,1.52
2022-11-29T06:58:00.544Z,1.45
2022-11-29T07:00:53.657Z,1.40
2022-11-29T07:03:57.206Z,1.48
2022-11-29T07:06:46.246Z,1.38
2022-11-29T07:09:36.423Z,1.52
2022-11-29T07:12:25.756Z,1.67
2022-11-29T07:15:16.661Z,1.77
2022-11-29T07:18:16.143Z,0.88
2022-11-29T07:21:12.510Z,1.30
2022-11-29T07:24:07.473Z,1.27
2022-11-29T07:27:04.203Z,1.67
2022-11-29T07:30:08.584Z,1.40
2022-11-29T07:33:04.974Z,1.50
2022-11-29T07:36:00.669Z,1.38
2022-11-29T07:38:57.822Z,1.58
2022-11-29T07:41:49.944Z,1.30
2022-11-29T07:44:41.338Z,1.50
2022-11-29T07:47:35.299Z,0.98
2022-11-29T07:50:24.474Z,1.35
2022-11-29T07:53:17.575Z,1.10
2022-11-29T07:56:06.648Z,0.75
2022-11-29T07:58:55.365Z,1.00
2022-11-29T08:01:44.108Z,1.00
2022-11-29T08:04:32.823Z,1.15
2022-11-29T08:07:21.538Z,1.42
2022-11-29T08:10:13.867Z,1.05
2022-11-29T08:13:02.518Z,0.80
2022-11-29T08:15:51.182Z,1.00
2022-11-29T08:18:39.820Z,0.80
2022-11-29T08:21:28.508Z,1.00
2022-11-29T08:24:17.087Z,0.85
2022-11-29T08:27:07.199Z,1.00
2022-11-29T08:29:55.848Z,1.17
2022-11-29T08:32:49.906Z,0.80
2022-11-29T08:35:42.109Z,1.23
2022-11-29T08:38:30.706Z,1.02
2022-11-29T08:41:19.526Z,1.25
2022-11-29T08:44:10.117Z,1.27
2022-11-29T08:47:16.213Z,0.60
2022-11-29T08:50:06.572Z,1.00
2022-11-29T08:53:12.754Z,0.70
2022-11-29T08:56:02.357Z,0.85
2022-11-29T08:58:57.119Z,0.90
2022-11-29T09:01:47.260Z,0.47
2022-11-29T09:04:35.948Z,0.75
2022-11-29T09:07:24.675Z,1.00
2022-11-29T09:10:13.535Z,0.63
2022-11-29T09:13:02.144Z,0.60
2022-11-29T09:15:50.837Z,0.52
2022-11-29T09:18:43.169Z,0.52
2022-11-29T09:21:36.878Z,0.73
2022-11-29T09:24:25.511Z,0.80
2022-11-29T09:27:14.209Z,0.75
2022-11-29T09:30:02.854Z,0.50
2022-11-29T09:32:51.516Z,0.65
2022-11-29T09:35:41.782Z,0.70
2022-11-29T09:38:30.958Z,0.75
2022-11-29T09:41:34.203Z,0.60
2022-11-29T09:44:31.064Z,0.70
2022-11-29T09:47:33.153Z,0.73
2022-11-29T09:50:26.862Z,0.60
2022-11-29T09:53:27.303Z,0.50
2022-11-29T09:56:21.329Z,0.93
2022-11-29T09:59:13.202Z,0.40
2022-11-29T10:02:05.497Z,0.52
2022-11-29T10:04:56.653Z,0.43
2022-11-29T10:07:48.068Z,0.50
2022-11-29T10:10:50.959Z,0.68
2022-11-29T10:13:44.133Z,0.85
2022-11-29T10:16:45.834Z,0.50
2022-11-29T10:19:37.597Z,0.38
2022-11-29T10:22:31.180Z,0.75
2022-11-29T10:25:24.993Z,0.40
2022-11-29T10:28:17.869Z,0.40
2022-11-29T10:31:17.876Z,0.30
2022-11-29T10:34:14.276Z,0.60
2022-11-29T10:37:03.693Z,0.43
2022-11-29T10:39:54.810Z,0.40
2022-11-29T10:42:49.661Z,0.38
2022-11-29T10:45:45.760Z,0.60
2022-11-29T10:48:35.265Z,0.40
2022-11-29T10:51:23.906Z,0.22
2022-11-29T10:54:21.599Z,0.55
2022-11-29T10:57:15.451Z,0.50
2022-11-29T11:00:07.830Z,0.50
2022-11-29T11:02:57.976Z,0.55
2022-11-29T11:05:59.506Z,0.50
2022-11-29T11:08:49.832Z,0.55
2022-11-29T11:11:38.894Z,0.40
2022-11-29T11:14:29.196Z,0.52
2022-11-29T11:17:26.035Z,0.40
2022-11-29T11:20:23.801Z,0.30
2022-11-29T11:23:25.953Z,0.28
2022-11-29T11:26:15.845Z,0.65
2022-11-29T11:29:05.410Z,0.40
2022-11-29T11:31:55.646Z,0.40
2022-11-29T11:34:52.888Z,0.30
2022-11-29T11:37:45.790Z,0.47
2022-11-29T11:40:34.688Z,0.40
2022-11-29T11:43:23.553Z,0.30
2022-11-29T11:46:17.704Z,0.30
2022-11-29T11:49:14.091Z,0.38
2022-11-29T11:52:03.122Z,0.38
2022-11-29T11:54:56.332Z,0.50
2022-11-29T11:57:44.977Z,0.35
2022-11-29T12:04:00.054Z,0.52
2022-11-29T12:06:52.487Z,0.47
2022-11-29T12:09:44.749Z,0.52
2022-11-29T12:12:38.183Z,0.40
2022-11-29T12:15:29.990Z,0.30
2022-11-29T12:18:25.712Z,0.40
2022-11-29T12:21:16.483Z,0.30
2022-11-29T12:24:07.988Z,0.40
2022-11-29T12:26:58.730Z,0.30
2022-11-29T12:29:49.080Z,0.20
2022-11-29T12:32:54.004Z,0.30
2022-11-29T12:36:18.401Z,0.30
2022-11-29T12:39:18.700Z,0.30
2022-11-29T12:42:14.172Z,0.30
2022-11-29T12:45:16.406Z,0.20
2022-11-29T12:48:18.563Z,0.40
2022-11-29T12:51:12.526Z,0.50
2022-11-29T12:54:20.576Z,0.50
2022-11-29T12:57:13.870Z,0.50
2022-11-29T13:00:11.319Z,0.43
2022-11-29T13:03:08.700Z,0.40
2022-11-29T13:06:05.521Z,0.40
2022-11-29T13:09:04.100Z,0.40
2022-11-29T13:11:57.019Z,0.40
2022-11-29T13:14:51.005Z,0.40
2022-11-29T13:17:47.501Z,0.30
2022-11-29T13:20:41.813Z,0.43
2022-11-29T13:23:46.082Z,0.30
2022-11-29T13:26:45.568Z,0.57
2022-11-29T13:29:35.638Z,0.40
2022-11-29T13:32:33.331Z,0.50
2022-11-29T13:35:28.173Z,0.25
2022-11-29T13:38:21.411Z,0.43
2022-11-29T13:41:16.609Z,0.45
2022-11-29T13:44:10.082Z,0.30
2022-11-29T13:47:06.054Z,0.30
2022-11-29T13:49:59.915Z,0.20
2022-11-29T13:52:50.796Z,0.38
2022-11-29T13:55:46.197Z,0.55
2022-11-29T13:58:39.171Z,0.50
2022-11-29T14:01:27.988Z,0.30
2022-11-29T14:04:34.629Z,0.30
2022-11-29T14:07:23.383Z,0.35
2022-11-29T14:10:28.513Z,0.40
2022-11-29T14:13:17.939Z,0.20
2022-11-29T14:16:07.644Z,0.30
2022-11-29T14:19:26.745Z,0.40
2022-11-29T14:22:21.802Z,0.30
2022-11-29T14:25:50.557Z,0.28
2022-11-29T14:28:37.129Z,0.20
2022-11-29T14:31:58.935Z,0.40
2022-11-29T14:34:50.421Z,0.50
2022-11-29T14:37:47.340Z,0.20
2022-11-29T14:40:46.422Z,0.82
2022-11-29T14:43:36.204Z,0.30
2022-11-29T14:46:29.581Z,0.22
2022-11-29T14:49:25.875Z,0.35
2022-11-29T14:52:25.537Z,0.20
2022-11-29T14:55:33.248Z,0.30
2022-11-29T14:58:23.583Z,0.40
2022-11-29T15:01:12.267Z,0.47
2022-11-29T15:04:06.868Z,0.30
2022-11-29T15:06:57.397Z,0.50
2022-11-29T15:09:46.000Z,0.43
2022-11-29T15:12:37.203Z,0.45
2022-11-29T15:15:42.057Z,0.68
2022-11-29T15:18:54.965Z,1.55
2022-11-29T15:21:48.363Z,2.53
2022-11-29T15:24:52.050Z,3.15
2022-11-29T15:27:51.632Z,3.00
2022-11-29T15:30:43.104Z,3.53
2022-11-29T15:33:31.820Z,4.10
2022-11-29T15:36:22.282Z,4.35
2022-11-29T15:39:37.897Z,4.82
2022-11-29T15:42:32.460Z,5.20
2022-11-29T15:45:36.260Z,4.75
2022-11-29T15:48:28.037Z,5.18
2022-11-29T15:51:25.943Z,5.65
2022-11-29T15:54:17.974Z,5.38
2022-11-29T15:57:17.319Z,5.40
2022-11-29T16:00:07.802Z,5.93
2022-11-29T16:02:59.675Z,6.40
2022-11-29T16:05:54.250Z,5.95
2022-11-29T16:08:43.842Z,6.82
2022-11-29T16:11:33.130Z,6.65
2022-11-29T16:14:23.606Z,7.07
2022-11-29T16:17:12.212Z,7.35
2022-11-29T16:20:24.297Z,7.93
2022-11-29T16:23:15.718Z,7.43
2022-11-29T16:26:11.559Z,6.93
2022-11-29T16:29:00.160Z,6.15
2022-11-29T16:31:49.020Z,5.97
2022-11-29T16:34:38.187Z,5.38
2022-11-29T16:37:28.281Z,5.03
2022-11-29T16:40:26.577Z,5.97
2022-11-29T16:43:23.878Z,5.25
2022-11-29T16:46:30.111Z,5.18
2022-11-29T16:49:36.132Z,4.63
2022-11-29T16:52:26.951Z,4.60
2022-11-29T16:55:17.042Z,4.75
2022-11-29T16:58:07.149Z,4.95
2022-11-29T17:00:55.938Z,4.65
2022-11-29T17:03:44.642Z,4.78
2022-11-29T17:06:33.305Z,4.25
2022-11-29T17:09:24.929Z,6.47
2022-11-29T17:12:14.936Z,7.45
2022-11-29T17:15:05.354Z,6.88
2022-11-29T17:17:54.039Z,7.10
2022-11-29T17:20:42.662Z,6.63
2022-11-29T17:23:31.486Z,6.85
2022-11-29T17:26:20.770Z,6.38
2022-11-29T17:29:09.616Z,6.30
2022-11-29T17:31:59.643Z,5.85
2022-11-29T17:34:48.395Z,5.70
2022-11-29T17:37:37.104Z,5.72
2022-11-29T17:40:25.793Z,5.78
2022-11-29T17:43:14.494Z,5.45
2022-11-29T17:46:08.281Z,5.95
2022-11-29T17:49:01.201Z,6.32
2022-11-29T17:51:52.661Z,5.78
2022-11-29T17:54:41.788Z,4.57
2022-11-29T17:57:30.370Z,4.65
2022-11-29T18:00:20.517Z,4.82
2022-11-29T18:03:09.333Z,4.65
2022-11-29T18:06:01.653Z,4.43
2022-11-29T18:08:53.750Z,5.30
2022-11-29T18:11:48.558Z,4.75
2022-11-29T18:14:39.017Z,5.30
2022-11-29T18:17:27.618Z,4.40
2022-11-29T18:20:16.428Z,4.57
2022-11-29T18:23:08.119Z,4.97
2022-11-29T18:25:58.840Z,5.00
2022-11-29T18:28:48.640Z,4.57
2022-11-29T18:31:38.862Z,3.75
2022-11-29T18:34:27.490Z,4.35
2022-11-29T18:37:27.542Z,4.13
2022-11-29T18:40:26.478Z,5.13
2022-11-29T18:43:17.781Z,5.43
2022-11-29T18:46:10.305Z,5.60
2022-11-29T18:48:59.145Z,5.43
2022-11-29T18:51:48.785Z,6.53
2022-11-29T18:54:37.526Z,6.18
2022-11-29T18:57:27.518Z,7.57
2022-11-29T19:00:17.161Z,8.23
2022-11-29T19:03:05.856Z,7.63
2022-11-29T19:05:55.036Z,6.43
2022-11-29T19:08:44.480Z,7.47
2022-11-29T19:11:36.600Z,7.57
2022-11-29T19:14:26.633Z,7.63
2022-11-29T19:17:15.348Z,8.98
2022-11-29T19:20:03.951Z,41.88
2022-11-29T19:22:57.435Z,70.93
2022-11-29T19:25:49.220Z,89.05
2022-11-29T19:28:38.697Z,87.40
2022-11-29T19:31:29.202Z,84.78
2022-11-29T19:34:22.058Z,93.78
2022-11-29T19:37:10.627Z,94.40
2022-11-29T19:39:59.251Z,91.18
2022-11-29T19:42:48.984Z,89.47
2022-11-29T19:45:40.408Z,88.68
2022-11-29T19:48:30.449Z,92.30
2022-11-29T19:51:19.074Z,90.30
2022-11-29T19:54:09.400Z,87.00
2022-11-29T19:56:58.747Z,85.05
2022-11-29T19:59:47.724Z,82.75
2022-11-29T20:02:36.656Z,84.78
2022-11-29T20:05:27.251Z,77.30
2022-11-29T20:08:19.901Z,83.28
2022-11-29T20:11:14.537Z,127.25
2022-11-29T20:14:07.770Z,152.93
2022-11-29T20:16:56.436Z,153.32
2022-11-29T20:19:45.431Z,150.00
2022-11-29T20:22:37.689Z,151.48
2022-11-29T20:25:26.439Z,145.13
2022-11-29T20:28:15.046Z,147.82
2022-11-29T20:31:06.523Z,139.95
2022-11-29T20:33:57.299Z,139.00
2022-11-29T20:37:36.396Z,145.35
2022-11-29T20:40:31.543Z,135.35
2022-11-29T20:43:22.097Z,129.52
2022-11-29T20:46:11.282Z,131.65
2022-11-29T20:49:06.146Z,126.78
2022-11-29T20:52:00.259Z,124.53
2022-11-29T20:54:48.976Z,123.93
2022-11-29T20:57:39.122Z,124.68
2022-11-29T21:00:27.991Z,121.68
2022-11-29T21:03:16.881Z,120.80
2022-11-29T21:06:07.070Z,116.38
2022-11-29T21:08:55.802Z,111.40
2022-11-29T21:11:44.720Z,109.97
2022-11-29T21:14:35.361Z,111.13
2022-11-29T21:17:28.782Z,112.80
2022-11-29T21:20:25.101Z,103.13
2022-11-29T21:23:20.081Z,107.78
2022-11-29T21:26:12.517Z,100.10
2022-11-29T21:29:17.069Z,99.88
2022-11-29T21:32:07.713Z,95.32
2022-11-29T21:34:56.375Z,95.30
2022-11-29T21:37:45.507Z,94.53
2022-11-29T21:40:34.212Z,89.65
2022-11-29T21:43:37.377Z,89.20
2022-11-29T21:46:31.523Z,90.05
2022-11-29T21:49:21.654Z,86.57
2022-11-29T21:52:10.364Z,83.03
2022-11-29T21:54:58.944Z,81.82
2022-11-29T21:57:48.046Z,80.97
2022-11-29T22:00:37.660Z,80.28
2022-11-29T22:03:26.507Z,80.03
2022-11-29T22:06:20.289Z,77.35
2022-11-29T22:09:08.916Z,76.00
2022-11-29T22:11:58.222Z,70.55
2022-11-29T22:14:47.035Z,70.10
2022-11-29T22:17:35.813Z,70.18
2022-11-29T22:20:24.569Z,68.65
2022-11-29T22:23:14.675Z,69.60
2022-11-29T22:26:04.889Z,63.80
2022-11-29T22:28:53.517Z,64.70
2022-11-29T22:31:42.401Z,64.90
2022-11-29T22:34:31.197Z,61.08
2022-11-29T22:37:19.851Z,59.88
2022-11-29T22:40:10.583Z,60.00
2022-11-29T22:42:59.160Z,60.22
2022-11-29T22:45:47.887Z,58.42
2022-11-29T22:48:38.978Z,58.28
2022-11-29T22:51:30.376Z,57.00
2022-11-29T22:54:18.912Z,58.10
2022-11-29T22:57:08.906Z,53.53
2022-11-29T22:59:57.619Z,55.63
2022-11-29T23:02:46.354Z,53.67
2022-11-29T23:05:34.991Z,51.95
2022-11-29T23:08:25.310Z,51.95
2022-11-29T23:11:17.505Z,51.10
2022-11-29T23:14:07.430Z,52.47
2022-11-29T23:16:56.185Z,48.38
2022-11-29T23:19:44.854Z,49.90
2022-11-29T23:22:38.669Z,47.45
2022-11-29T23:25:27.551Z,48.38
2022-11-29T23:28:16.309Z,46.00
2022-11-29T23:31:06.359Z,46.90
2022-11-29T23:33:55.322Z,46.33
2022-11-29T23:36:48.253Z,44.70
2022-11-29T23:39:39.895Z,43.72
2022-11-29T23:42:28.607Z,43.85
2022-11-29T23:45:17.480Z,42.75
2022-11-29T23:48:07.817Z,41.30
2022-11-29T23:50:56.443Z,43.25
2022-11-29T23:53:45.241Z,40.13
2022-11-29T23:56:35.584Z,39.42
2022-11-29T23:59:24.304Z,39.92
